createdAt,value
2022-08-17T00:02:26.793Z,25.50
2022-08-17T00:04:55.366Z,25.50
2022-08-17T00:07:23.105Z,25.50
2022-08-17T00:09:50.426Z,25.50
2022-08-17T00:12:43.491Z,25.40
2022-08-17T00:15:10.565Z,25.50
2022-08-17T00:17:38.229Z,25.40
2022-08-17T00:20:06.328Z,25.40
2022-08-17T00:22:36.418Z,25.40
2022-08-17T00:25:12.161Z,25.30
2022-08-17T00:27:39.572Z,25.30
2022-08-17T00:30:10.492Z,25.30
2022-08-17T00:33:23.256Z,25.30
2022-08-17T00:35:34.562Z,25.30
2022-08-17T00:38:01.844Z,25.30
2022-08-17T00:40:40.753Z,25.30
2022-08-17T00:43:22.077Z,25.30
2022-08-17T00:45:49.843Z,25.30
2022-08-17T00:48:29.403Z,25.30
2022-08-17T00:51:18.237Z,25.20
2022-08-17T00:53:54.418Z,25.20
2022-08-17T00:56:28.361Z,25.20
2022-08-17T00:58:55.886Z,25.20
2022-08-17T01:01:23.401Z,25.20
2022-08-17T01:03:55.599Z,25.20
2022-08-17T01:06:28.291Z,25.10
2022-08-17T01:08:58.036Z,25.20
2022-08-17T01:11:26.930Z,25.10
2022-08-17T01:13:54.206Z,25.10
2022-08-17T01:16:30.712Z,25.10
2022-08-17T01:19:02.077Z,25.00
2022-08-17T01:21:45.145Z,25.10
2022-08-17T01:24:12.491Z,25.00
2022-08-17T01:26:41.179Z,25.00
2022-08-17T01:29:09.347Z,25.00
2022-08-17T01:31:41.763Z,24.90
2022-08-17T01:34:11.061Z,24.90
2022-08-17T01:36:41.237Z,24.80
2022-08-17T01:39:16.851Z,24.80
2022-08-17T01:41:46.043Z,24.80
2022-08-17T01:44:16.490Z,24.80
2022-08-17T01:46:43.755Z,24.70
2022-08-17T01:49:11.833Z,24.70
2022-08-17T01:51:39.643Z,24.70
2022-08-17T01:54:11.203Z,24.70
2022-08-17T01:56:41.787Z,24.70
2022-08-17T01:59:10.826Z,24.70
2022-08-17T02:01:38.694Z,24.70
2022-08-17T02:04:07.318Z,24.60
2022-08-17T02:06:47.051Z,24.60
2022-08-17T02:09:23.249Z,24.60
2022-08-17T02:11:54.882Z,24.60
2022-08-17T02:14:24.927Z,24.60
2022-08-17T02:16:53.715Z,24.60
2022-08-17T02:19:21.844Z,24.60
2022-08-17T02:21:51.537Z,24.50
2022-08-17T02:25:00.159Z,24.50
2022-08-17T02:27:16.640Z,24.50
2022-08-17T02:29:43.892Z,24.50
2022-08-17T02:32:27.910Z,24.50
2022-08-17T02:35:00.100Z,24.40
2022-08-17T02:37:28.763Z,24.40
2022-08-17T02:39:59.943Z,24.40
2022-08-17T02:42:39.225Z,24.40
2022-08-17T02:45:11.114Z,24.40
2022-08-17T02:47:40.059Z,24.30
2022-08-17T02:50:09.772Z,24.30
2022-08-17T02:53:01.654Z,24.30
2022-08-17T02:55:33.487Z,24.30
2022-08-17T02:58:01.594Z,24.30
2022-08-17T03:00:36.262Z,24.30
2022-08-17T03:03:05.540Z,24.20
2022-08-17T03:05:36.320Z,24.20
2022-08-17T03:08:05.847Z,24.20
2022-08-17T03:10:33.843Z,24.20
2022-08-17T03:13:01.568Z,24.20
2022-08-17T03:15:31.712Z,24.10
2022-08-17T03:17:59.948Z,24.10
2022-08-17T03:20:29.545Z,24.10
2022-08-17T03:23:01.859Z,24.10
2022-08-17T03:25:37.445Z,24.10
2022-08-17T03:28:07.026Z,24.00
2022-08-17T03:30:34.642Z,24.00
2022-08-17T03:33:04.378Z,24.00
2022-08-17T03:35:34.127Z,24.00
2022-08-17T03:38:01.974Z,23.90
2022-08-17T03:40:55.403Z,23.90
2022-08-17T03:43:19.774Z,23.90
2022-08-17T03:46:05.893Z,23.90
2022-08-17T03:49:09.966Z,23.90
2022-08-17T03:51:55.551Z,23.90
2022-08-17T03:54:41.410Z,23.80
2022-08-17T03:57:11.016Z,23.80
2022-08-17T03:59:38.764Z,23.80
2022-08-17T04:02:12.963Z,23.80
2022-08-17T04:04:40.631Z,23.80
2022-08-17T04:07:08.305Z,23.80
2022-08-17T04:09:36.492Z,23.80
2022-08-17T04:12:05.181Z,23.80
2022-08-17T04:14:37.856Z,23.80
2022-08-17T04:17:20.250Z,23.80
2022-08-17T04:19:47.463Z,23.80
2022-08-17T04:22:30.424Z,23.70
2022-08-17T04:25:03.067Z,23.70
2022-08-17T04:27:30.286Z,23.70
2022-08-17T04:29:58.509Z,23.70
2022-08-17T04:32:59.216Z,23.70
2022-08-17T04:35:17.292Z,23.70
2022-08-17T04:37:45.395Z,23.70
2022-08-17T04:40:31.102Z,23.70
2022-08-17T04:43:10.570Z,23.70
2022-08-17T04:46:11.696Z,23.70
2022-08-17T04:48:45.677Z,23.70
2022-08-17T04:51:17.599Z,23.70
2022-08-17T04:53:51.097Z,23.70
2022-08-17T04:56:22.841Z,23.70
2022-08-17T04:58:52.964Z,23.70
2022-08-17T05:01:23.946Z,23.70
2022-08-17T05:03:56.962Z,23.70
2022-08-17T05:06:24.831Z,23.70
2022-08-17T05:08:52.663Z,23.70
2022-08-17T05:11:20.231Z,23.70
2022-08-17T05:13:50.183Z,23.70
2022-08-17T05:16:18.704Z,23.70
2022-08-17T05:18:46.424Z,23.70
2022-08-17T05:21:14.013Z,23.70
2022-08-17T05:23:43.521Z,23.70
2022-08-17T05:26:22.011Z,23.70
2022-08-17T05:29:02.455Z,23.70
2022-08-17T05:31:30.800Z,23.70
2022-08-17T05:33:58.659Z,23.80
2022-08-17T05:36:38.116Z,23.80
2022-08-17T05:39:15.627Z,23.80
2022-08-17T05:41:46.902Z,23.80
2022-08-17T05:44:14.552Z,23.90
2022-08-17T05:46:45.558Z,23.80
2022-08-17T05:49:16.007Z,23.80
2022-08-17T05:51:58.289Z,23.80
2022-08-17T05:54:40.552Z,23.90
2022-08-17T05:57:35.950Z,23.90
2022-08-17T06:00:12.722Z,23.90
2022-08-17T06:03:09.895Z,23.90
2022-08-17T06:05:46.347Z,24.00
2022-08-17T06:08:21.810Z,24.00
2022-08-17T06:10:57.990Z,24.00
2022-08-17T06:13:59.569Z,24.00
2022-08-17T06:16:35.438Z,23.90
2022-08-17T06:19:30.891Z,24.00
2022-08-17T06:21:59.781Z,23.90
2022-08-17T06:24:34.787Z,23.90
2022-08-17T06:27:31.120Z,24.00
2022-08-17T06:30:11.590Z,24.00
2022-08-17T06:32:42.466Z,24.00
2022-08-17T06:35:13.875Z,24.00
2022-08-17T06:38:09.364Z,24.10
2022-08-17T06:41:00.206Z,24.10
2022-08-17T06:43:53.476Z,24.10
2022-08-17T06:46:32.189Z,24.10
2022-08-17T06:49:08.225Z,24.20
2022-08-17T06:51:43.291Z,24.20
2022-08-17T06:54:25.331Z,24.30
2022-08-17T06:57:05.133Z,24.30
2022-08-17T06:59:54.587Z,24.40
2022-08-17T07:02:52.792Z,24.40
2022-08-17T07:05:24.954Z,24.40
2022-08-17T07:08:04.632Z,24.50
2022-08-17T07:10:38.991Z,24.60
2022-08-17T07:13:51.093Z,24.60
2022-08-17T07:16:25.842Z,24.70
2022-08-17T07:18:55.845Z,24.80
2022-08-17T07:21:54.950Z,24.80
2022-08-17T07:24:45.034Z,24.80
2022-08-17T07:27:15.552Z,24.90
2022-08-17T07:29:49.398Z,25.00
2022-08-17T07:32:25.632Z,25.00
2022-08-17T07:35:11.714Z,25.00
2022-08-17T07:37:46.320Z,25.10
2022-08-17T07:40:30.922Z,25.10
2022-08-17T07:43:23.259Z,25.10
2022-08-17T07:46:23.667Z,25.10
2022-08-17T07:48:54.978Z,25.20
2022-08-17T07:51:29.257Z,25.20
2022-08-17T07:54:13.552Z,25.20
2022-08-17T07:56:46.416Z,25.20
2022-08-17T07:59:23.565Z,25.30
2022-08-17T08:01:58.036Z,25.30
2022-08-17T08:05:00.236Z,25.40
2022-08-17T08:07:21.594Z,25.40
2022-08-17T08:10:24.938Z,25.40
2022-08-17T08:13:10.766Z,25.40
2022-08-17T08:15:53.475Z,25.30
2022-08-17T08:18:47.610Z,25.30
2022-08-17T08:21:46.657Z,25.40
2022-08-17T08:24:19.599Z,25.40
2022-08-17T08:27:07.841Z,25.40
2022-08-17T08:29:42.679Z,25.40
2022-08-17T08:32:36.815Z,25.30
2022-08-17T08:35:09.719Z,25.30
2022-08-17T08:37:44.549Z,25.30
2022-08-17T08:40:39.838Z,25.30
2022-08-17T08:43:28.739Z,25.30
2022-08-17T08:46:25.682Z,25.30
2022-08-17T08:49:12.461Z,25.30
2022-08-17T08:51:59.381Z,25.30
2022-08-17T08:55:01.906Z,25.30
2022-08-17T08:57:38.074Z,25.20
2022-08-17T09:00:21.362Z,25.20
2022-08-17T09:02:57.544Z,25.10
2022-08-17T09:05:26.016Z,25.00
2022-08-17T09:08:05.222Z,25.00
2022-08-17T09:11:02.302Z,25.00
2022-08-17T09:13:54.577Z,24.90
2022-08-17T09:16:37.356Z,25.00
2022-08-17T09:19:30.322Z,24.90
2022-08-17T09:22:11.966Z,25.00
2022-08-17T09:24:46.470Z,25.00
2022-08-17T09:27:18.407Z,24.90
2022-08-17T09:29:57.744Z,25.00
2022-08-17T09:32:36.415Z,25.00
2022-08-17T09:35:17.392Z,25.00
2022-08-17T09:37:47.754Z,24.90
2022-08-17T09:40:39.434Z,24.90
2022-08-17T09:43:37.433Z,24.80
2022-08-17T09:46:09.566Z,24.80
2022-08-17T09:49:03.190Z,24.80
2022-08-17T09:51:44.981Z,24.70
2022-08-17T09:54:41.148Z,24.70
2022-08-17T09:57:32.179Z,24.60
2022-08-17T10:00:15.691Z,24.60
2022-08-17T10:03:00.447Z,24.60
2022-08-17T10:05:30.648Z,24.50
2022-08-17T10:08:09.164Z,24.50
2022-08-17T10:11:08.132Z,24.50
2022-08-17T10:14:01.168Z,24.40
2022-08-17T10:16:52.051Z,24.40
2022-08-17T10:19:35.222Z,24.40
2022-08-17T10:22:34.788Z,24.40
2022-08-17T10:25:26.108Z,24.40
2022-08-17T10:28:07.419Z,24.40
2022-08-17T10:30:49.143Z,24.40
2022-08-17T10:33:21.373Z,24.50
2022-08-17T10:36:10.166Z,24.60
2022-08-17T10:38:59.954Z,24.60
2022-08-17T10:41:45.207Z,24.80
2022-08-17T10:44:40.880Z,24.80
2022-08-17T10:47:18.293Z,24.90
2022-08-17T10:49:54.486Z,24.90
2022-08-17T10:52:28.004Z,24.90
2022-08-17T10:54:58.026Z,25.00
2022-08-17T10:57:39.936Z,25.00
2022-08-17T11:00:24.195Z,25.00
2022-08-17T11:02:57.342Z,25.10
2022-08-17T11:06:03.692Z,25.30
2022-08-17T11:09:03.002Z,25.40
2022-08-17T11:11:50.867Z,25.50
2022-08-17T11:14:36.706Z,25.50
2022-08-17T11:17:13.034Z,25.60
2022-08-17T11:19:59.769Z,25.60
2022-08-17T11:22:48.186Z,25.70
2022-08-17T11:25:19.260Z,25.60
2022-08-17T11:27:53.554Z,25.60
2022-08-17T11:30:50.790Z,25.60
2022-08-17T11:33:30.446Z,25.70
2022-08-17T11:36:37.245Z,25.70
2022-08-17T11:39:13.002Z,25.60
2022-08-17T11:41:53.552Z,25.70
2022-08-17T11:44:45.547Z,25.70
2022-08-17T11:48:23.916Z,25.80
2022-08-17T11:51:25.155Z,25.80
2022-08-17T11:54:21.394Z,25.80
2022-08-17T11:56:44.353Z,25.90
2022-08-17T11:59:32.585Z,26.00
2022-08-17T12:02:02.847Z,26.10
2022-08-17T12:04:33.275Z,26.10
2022-08-17T12:07:12.931Z,26.20
2022-08-17T12:09:45.596Z,26.40
2022-08-17T12:12:35.820Z,26.50
2022-08-17T12:15:11.895Z,26.50
2022-08-17T12:17:42.750Z,26.60
2022-08-17T12:20:23.978Z,26.70
2022-08-17T12:23:21.270Z,26.70
2022-08-17T12:25:59.282Z,26.60
2022-08-17T12:28:31.464Z,26.60
2022-08-17T12:31:07.584Z,26.60
2022-08-17T12:33:36.955Z,26.60
2022-08-17T12:36:10.484Z,26.70
2022-08-17T12:38:38.342Z,26.70
2022-08-17T12:41:26.457Z,26.80
2022-08-17T12:44:24.643Z,26.90
2022-08-17T12:47:19.415Z,27.00
2022-08-17T12:49:51.678Z,27.10
2022-08-17T12:52:28.971Z,27.30
2022-08-17T12:55:01.905Z,27.40
2022-08-17T12:57:45.923Z,27.40
2022-08-17T13:00:29.088Z,27.30
2022-08-17T13:03:16.976Z,27.30
2022-08-17T13:06:03.289Z,27.40
2022-08-17T13:08:43.060Z,27.50
2022-08-17T13:11:24.462Z,27.70
2022-08-17T13:13:55.942Z,27.80
2022-08-17T13:16:33.365Z,27.80
2022-08-17T13:19:12.771Z,27.80
2022-08-17T13:21:46.093Z,28.10
2022-08-17T13:24:17.040Z,28.20
2022-08-17T13:26:50.133Z,28.40
2022-08-17T13:29:32.105Z,28.70
2022-08-17T13:32:11.615Z,28.90
2022-08-17T13:35:14.910Z,29.20
2022-08-17T13:37:36.537Z,29.30
2022-08-17T13:40:09.633Z,29.50
2022-08-17T13:42:50.318Z,29.70
2022-08-17T13:45:35.584Z,29.70
2022-08-17T13:48:14.032Z,29.90
2022-08-17T13:50:49.660Z,30.10
2022-08-17T13:53:27.148Z,30.20
2022-08-17T13:56:36.956Z,30.40
2022-08-17T13:59:52.910Z,30.50
2022-08-17T14:02:15.771Z,30.40
2022-08-17T14:04:44.561Z,30.20
2022-08-17T14:07:12.517Z,30.20
2022-08-17T14:09:57.368Z,30.10
2022-08-17T14:12:27.257Z,30.10
2022-08-17T14:14:56.356Z,30.00
2022-08-17T14:17:25.002Z,29.80
2022-08-17T14:19:53.339Z,29.80
2022-08-17T14:22:30.624Z,29.70
2022-08-17T14:24:59.756Z,29.60
2022-08-17T14:27:28.059Z,29.40
2022-08-17T14:29:56.317Z,29.30
2022-08-17T14:32:32.920Z,29.20
2022-08-17T14:35:04.475Z,29.00
2022-08-17T14:37:32.415Z,28.90
2022-08-17T14:40:02.528Z,28.90
2022-08-17T14:42:33.206Z,28.80
2022-08-17T14:45:06.117Z,28.70
2022-08-17T14:47:47.892Z,28.70
2022-08-17T14:50:19.675Z,28.70
2022-08-17T14:52:47.947Z,28.70
2022-08-17T14:55:21.055Z,28.70
2022-08-17T14:57:48.423Z,28.80
2022-08-17T15:00:16.644Z,28.70
2022-08-17T15:02:56.092Z,28.70
2022-08-17T15:05:27.142Z,28.60
2022-08-17T15:07:55.276Z,28.60
2022-08-17T15:10:23.400Z,28.50
2022-08-17T15:12:52.154Z,28.50
2022-08-17T15:15:19.935Z,28.40
2022-08-17T15:17:47.224Z,28.50
2022-08-17T15:20:17.296Z,28.50
2022-08-17T15:22:46.729Z,28.60
2022-08-17T15:25:14.630Z,28.70
2022-08-17T15:27:42.425Z,28.80
2022-08-17T15:30:10.485Z,29.00
2022-08-17T15:32:40.520Z,29.10
2022-08-17T15:35:11.716Z,29.20
2022-08-17T15:37:41.827Z,29.40
2022-08-17T15:40:10.292Z,29.60
2022-08-17T15:42:40.901Z,29.70
2022-08-17T15:45:12.109Z,29.90
2022-08-17T15:47:40.032Z,30.00
2022-08-17T15:50:08.758Z,30.20
2022-08-17T15:52:40.045Z,30.50
2022-08-17T15:55:11.410Z,30.70
2022-08-17T15:57:39.040Z,31.10
2022-08-17T16:00:08.524Z,31.40
2022-08-17T16:03:45.757Z,31.60
2022-08-17T16:05:28.574Z,31.90
2022-08-17T16:07:59.723Z,32.20
2022-08-17T16:10:35.151Z,32.50
2022-08-17T16:13:04.379Z,32.70
2022-08-17T16:15:32.161Z,32.80
2022-08-17T16:17:59.600Z,32.30
2022-08-17T16:20:26.988Z,32.10
2022-08-17T16:22:55.162Z,31.70
2022-08-17T16:25:47.170Z,31.40
2022-08-17T16:28:17.971Z,31.10
2022-08-17T16:30:45.801Z,30.70
2022-08-17T16:33:13.608Z,30.50
2022-08-17T16:35:42.041Z,30.20
2022-08-17T16:38:09.543Z,30.00
2022-08-17T16:40:38.704Z,29.90
2022-08-17T16:43:10.553Z,29.70
2022-08-17T16:45:40.301Z,29.60
2022-08-17T16:48:09.562Z,29.40
2022-08-17T16:50:37.144Z,29.30
2022-08-17T16:53:17.829Z,29.20
2022-08-17T16:55:47.195Z,29.10
2022-08-17T16:58:15.505Z,29.00
2022-08-17T17:00:45.107Z,29.00
2022-08-17T17:03:19.252Z,28.90
2022-08-17T17:06:24.844Z,28.80
2022-08-17T17:08:59.760Z,28.50
2022-08-17T17:11:33.553Z,28.40
2022-08-17T17:14:05.823Z,28.30
2022-08-17T17:16:52.110Z,28.10
2022-08-17T17:19:35.140Z,28.00
2022-08-17T17:22:16.330Z,28.00
2022-08-17T17:25:05.199Z,27.90
2022-08-17T17:27:50.545Z,27.80
2022-08-17T17:30:44.305Z,27.70
2022-08-17T17:33:17.698Z,27.60
2022-08-17T17:35:50.019Z,27.50
2022-08-17T17:38:29.257Z,27.50
2022-08-17T17:41:10.552Z,27.40
2022-08-17T17:43:40.164Z,27.30
2022-08-17T17:46:31.401Z,27.20
2022-08-17T17:49:00.677Z,27.10
2022-08-17T17:52:06.860Z,27.00
2022-08-17T17:54:42.704Z,26.90
2022-08-17T17:57:12.787Z,26.90
2022-08-17T18:00:11.983Z,26.70
2022-08-17T18:02:52.641Z,26.70
2022-08-17T18:05:45.004Z,26.70
2022-08-17T18:08:32.388Z,26.60
2022-08-17T18:11:23.998Z,26.60
2022-08-17T18:14:21.045Z,26.60
2022-08-17T18:16:54.917Z,26.60
2022-08-17T18:19:25.303Z,26.50
2022-08-17T18:22:04.001Z,26.50
2022-08-17T18:24:37.836Z,26.40
2022-08-17T18:27:21.224Z,26.40
2022-08-17T18:29:50.285Z,26.40
2022-08-17T18:32:28.263Z,26.30
2022-08-17T18:35:18.071Z,26.30
2022-08-17T18:37:47.199Z,26.30
2022-08-17T18:40:20.513Z,26.20
2022-08-17T18:42:50.463Z,26.20
2022-08-17T18:45:42.080Z,26.10
2022-08-17T18:48:28.726Z,26.10
2022-08-17T18:51:21.470Z,26.00
2022-08-17T18:54:25.845Z,26.00
2022-08-17T18:56:59.095Z,25.90
2022-08-17T18:59:42.350Z,25.90
2022-08-17T19:02:33.653Z,25.80
2022-08-17T19:05:30.814Z,25.70
2022-08-17T19:08:28.319Z,25.70
2022-08-17T19:11:26.459Z,25.70
2022-08-17T19:14:03.740Z,25.60
2022-08-17T19:16:59.115Z,25.60
2022-08-17T19:19:53.991Z,25.60
2022-08-17T19:22:49.689Z,25.50
2022-08-17T19:25:28.932Z,25.40
2022-08-17T19:28:03.738Z,25.40
2022-08-17T19:30:31.355Z,25.30
2022-08-17T19:33:00.888Z,25.30
2022-08-17T19:35:53.132Z,25.20
2022-08-17T19:38:34.921Z,25.20
2022-08-17T19:41:14.570Z,25.20
2022-08-17T19:44:08.676Z,25.20
2022-08-17T19:47:00.805Z,25.10
2022-08-17T19:49:40.976Z,25.10
2022-08-17T19:52:08.733Z,25.00
2022-08-17T19:54:52.389Z,25.00
2022-08-17T19:57:43.096Z,25.00
2022-08-17T20:00:18.233Z,24.90
2022-08-17T20:03:05.854Z,24.90
2022-08-17T20:06:10.991Z,24.90
2022-08-17T20:08:38.762Z,24.80
2022-08-17T20:11:15.885Z,24.80
2022-08-17T20:13:51.004Z,24.80
2022-08-17T20:16:20.056Z,24.70
2022-08-17T20:19:22.191Z,24.70
2022-08-17T20:22:06.036Z,24.60
2022-08-17T20:24:53.034Z,24.60
2022-08-17T20:27:55.396Z,24.60
2022-08-17T20:30:40.027Z,24.50
2022-08-17T20:33:23.213Z,24.50
2022-08-17T20:36:22.685Z,24.40
2022-08-17T20:38:56.635Z,24.40
2022-08-17T20:41:29.969Z,24.30
2022-08-17T20:43:57.168Z,24.30
2022-08-17T20:46:33.489Z,24.20
2022-08-17T20:49:19.935Z,24.20
2022-08-17T20:52:01.735Z,24.20
2022-08-17T20:55:08.172Z,24.10
2022-08-17T20:57:35.440Z,24.10
2022-08-17T21:00:31.943Z,24.10
2022-08-17T21:03:22.535Z,24.10
2022-08-17T21:06:00.290Z,24.10
2022-08-17T21:08:32.497Z,24.00
2022-08-17T21:11:01.579Z,24.10
2022-08-17T21:13:41.144Z,24.00
2022-08-17T21:16:53.421Z,24.00
2022-08-17T21:20:00.565Z,24.00
2022-08-17T21:22:34.604Z,24.00
2022-08-17T21:25:32.350Z,23.90
2022-08-17T21:28:08.207Z,23.90
2022-08-17T21:30:37.898Z,23.90
2022-08-17T21:33:28.166Z,23.80
2022-08-17T21:35:58.771Z,23.80
2022-08-17T21:38:57.397Z,23.80
2022-08-17T21:41:35.535Z,23.80
2022-08-17T21:44:31.414Z,23.80
2022-08-17T21:47:19.304Z,23.70
2022-08-17T21:49:46.771Z,23.60
2022-08-17T21:52:17.562Z,23.60
2022-08-17T21:55:03.193Z,23.60
2022-08-17T21:57:32.942Z,23.50
2022-08-17T22:00:02.080Z,23.50
2022-08-17T22:02:35.269Z,23.50
2022-08-17T22:05:07.789Z,23.40
2022-08-17T22:07:48.509Z,23.40
2022-08-17T22:10:34.242Z,23.40
2022-08-17T22:13:17.262Z,23.40
2022-08-17T22:16:15.541Z,23.30
2022-08-17T22:18:57.525Z,23.30
2022-08-17T22:21:25.277Z,23.30
2022-08-17T22:24:05.592Z,23.30
2022-08-17T22:26:59.962Z,23.30
2022-08-17T22:29:57.101Z,23.20
2022-08-17T22:32:37.767Z,23.20
2022-08-17T22:35:32.472Z,23.20
2022-08-17T22:38:32.206Z,23.20
2022-08-17T22:41:41.062Z,23.10
2022-08-17T22:44:23.234Z,23.10
2022-08-17T22:47:13.892Z,23.00
2022-08-17T22:49:53.140Z,23.00
2022-08-17T22:53:03.268Z,22.90
2022-08-17T22:55:50.686Z,22.90
2022-08-17T22:58:40.780Z,22.90
2022-08-17T23:01:31.339Z,22.90
2022-08-17T23:04:10.450Z,22.90
2022-08-17T23:06:40.006Z,22.90
2022-08-17T23:09:07.772Z,22.90
2022-08-17T23:11:58.416Z,22.90
2022-08-17T23:14:31.354Z,22.90
2022-08-17T23:17:01.690Z,23.00
2022-08-17T23:19:32.409Z,23.00
2022-08-17T23:22:04.191Z,23.00
2022-08-17T23:24:35.624Z,23.00
2022-08-17T23:27:07.622Z,23.00
2022-08-17T23:29:39.174Z,23.00
2022-08-17T23:32:07.215Z,22.90
2022-08-17T23:34:36.168Z,22.90
2022-08-17T23:37:04.366Z,22.90
2022-08-17T23:39:31.716Z,22.90
2022-08-17T23:42:03.262Z,22.90
2022-08-17T23:44:30.946Z,22.80
2022-08-17T23:46:58.198Z,22.80
2022-08-17T23:49:25.542Z,22.80
2022-08-17T23:51:56.531Z,22.80
2022-08-17T23:54:43.517Z,22.80
2022-08-17T23:57:16.525Z,22.80
2022-08-17T23:59:44.395Z,22.70
